createdAt,value
2018-01-20T00:14:31.273Z,54.0
2018-01-20T00:31:18.706Z,54.0
2018-01-20T00:48:05.679Z,53.2
2018-01-20T01:04:52.541Z,53.2
2018-01-20T01:21:40.340Z,52.8
2018-01-20T01:38:27.238Z,52.8
2018-01-20T01:55:15.026Z,52.8
2018-01-20T02:12:02.383Z,52.4
2018-01-20T02:28:48.923Z,52.0
2018-01-20T02:45:37.144Z,52.4
2018-01-20T03:02:23.030Z,52.0
2018-01-20T03:19:11.103Z,52.0
2018-01-20T03:35:56.759Z,52.0
2018-01-20T03:52:44.087Z,52.0
2018-01-20T04:09:31.829Z,51.2
2018-01-20T04:26:18.816Z,51.2
2018-01-20T04:43:04.821Z,51.2
2018-01-20T04:59:52.358Z,51.2
2018-01-20T05:16:39.058Z,51.2
2018-01-20T05:33:25.769Z,50.8
2018-01-20T05:50:13.323Z,50.8
2018-01-20T06:06:59.791Z,50.8
2018-01-20T06:23:47.092Z,50.8
2018-01-20T06:40:34.073Z,50.8
2018-01-20T06:57:20.662Z,50.4
2018-01-20T07:14:06.745Z,50.4
2018-01-20T07:30:53.947Z,50.4
2018-01-20T07:47:40.587Z,50.4
2018-01-20T08:04:26.420Z,50.4
2018-01-20T08:21:14.802Z,50.4
2018-01-20T08:38:00.309Z,50.4
2018-01-20T08:54:47.964Z,50.4
2018-01-20T09:11:34.572Z,50.4
2018-01-20T09:28:22.203Z,50.4
2018-01-20T09:45:08.924Z,50.0
2018-01-20T10:01:56.581Z,50.4
2018-01-20T10:18:44.003Z,50.0
2018-01-20T10:35:31.047Z,49.2
2018-01-20T10:52:19.286Z,48.4
2018-01-20T11:09:06.384Z,48.4
2018-01-20T11:25:54.085Z,49.2
2018-01-20T11:42:41.896Z,49.6
2018-01-20T11:59:29.640Z,49.6
2018-01-20T12:16:17.500Z,50.0
2018-01-20T12:33:03.825Z,50.0
2018-01-20T12:49:51.516Z,51.6
2018-01-20T13:06:39.071Z,52.0
2018-01-20T13:23:26.677Z,52.0
2018-01-20T13:40:14.432Z,52.4
2018-01-20T13:57:01.883Z,52.4
2018-01-20T14:13:49.554Z,52.0
2018-01-20T14:30:37.142Z,52.0
2018-01-20T14:47:24.913Z,52.0
2018-01-20T15:04:12.705Z,52.0
2018-01-20T15:21:00.387Z,52.0
2018-01-20T15:37:47.300Z,52.0
2018-01-20T15:54:34.270Z,51.6
2018-01-20T16:11:21.250Z,51.6
2018-01-20T16:28:08.511Z,52.0
2018-01-20T16:44:55.268Z,52.0
2018-01-20T17:01:42.457Z,52.4
2018-01-20T17:18:29.807Z,52.4
2018-01-20T17:35:18.472Z,52.4
2018-01-20T17:52:04.168Z,52.4
2018-01-20T18:08:51.375Z,52.8
2018-01-20T18:25:38.425Z,52.8
2018-01-20T18:42:25.317Z,53.2
2018-01-20T18:59:12.320Z,53.2
2018-01-20T19:15:59.692Z,53.6
2018-01-20T19:32:46.840Z,53.6
2018-01-20T19:49:33.955Z,53.6
2018-01-20T20:06:21.263Z,53.6
2018-01-20T20:23:08.557Z,53.6
2018-01-20T20:39:55.847Z,53.6
2018-01-20T20:56:43.169Z,53.6
2018-01-20T21:13:30.484Z,53.6
2018-01-20T21:30:18.758Z,53.6
2018-01-20T21:47:05.222Z,53.6
2018-01-20T22:03:52.606Z,53.6
2018-01-20T22:20:39.961Z,53.6
2018-01-20T22:37:27.365Z,53.6
2018-01-20T22:54:14.914Z,53.6
2018-01-20T23:11:02.356Z,53.6
2018-01-20T23:27:49.736Z,53.6
2018-01-20T23:44:37.048Z,53.6
